Latest Weather Observations for Jandakot

IDW60801

Issued at 10:02 pm WST Wednesday 28 January 2015 (issued every 30 minutes, with the page automatically refreshed every 10 minutes)

About weather observations | Map of weather stations | Latest weather observations for WA | Other Formats
Station Details ID: 009172 Name: JANDAKOT AERO Lat: -32.10 Lon: 115.88 Height: 30.0 m
Data from the previous 72 hours. | See also: Recent months at Jandakot
Date/Time
WST
Temp
°C
App
Temp
°C
Dew
Point
Rel
Hum
%
Delta-T
°C
Wind Press
QNH
hPa
Press
MSL
hPa
Rain
since 9 am
mm
Dir
 
Spd
km/h
Gust
km/h
Spd
kts
Gust
kts
28/10:00pm 27.7 28.0 16.1 49 7.2 SW 9 11 5 6 1007.0 1006.8 0.0
28/09:30pm 28.6 28.7 16.4 47 7.6 SW 11 15 6 8 1006.8 1006.6 0.0
28/09:00pm 28.9 29.2 16.0 45 8.0 WSW 9 11 5 6 1007.2 1007.0 0.0
28/08:30pm 29.1 30.0 16.7 47 7.8 SW 7 9 4 5 1007.1 1006.9 0.0
28/08:00pm 29.9 31.3 17.3 46 8.0 W 6 9 3 5 1006.7 1006.5 0.0
28/07:30pm 30.4 31.1 17.0 44 8.5 WSW 9 11 5 6 1006.3 1006.1 0.0
28/07:00pm 32.0 31.2 15.0 35 10.5 SW 13 17 7 9 1005.8 1005.6 0.0
28/06:30pm 32.8 31.7 15.3 34 10.9 SW 15 22 8 12 1005.6 1005.4 0.0
28/06:00pm 33.2 30.5 14.6 32 11.5 SSW 22 30 12 16 1005.6 1005.4 0.0
28/05:30pm 33.6 31.8 15.6 34 11.3 SW 19 26 10 14 1005.6 1005.4 0.0
28/05:00pm 32.7 30.1 15.8 36 10.6 WSW 24 30 13 16 1005.4 1005.2 0.0
28/04:30pm 33.4 31.3 15.3 33 11.3 SW 20 32 11 17 1005.7 1005.5 0.0
28/04:00pm 34.0 31.9 15.1 32 11.8 WSW 20 26 11 14 1005.6 1005.4 0.0
28/03:30pm 33.5 30.3 15.4 33 11.3 WSW 26 32 14 17 1005.5 1005.3 0.0
28/03:00pm 35.1 31.7 14.7 29 12.7 WSW 26 33 14 18 1005.6 1005.4 0.0
28/02:30pm 35.6 31.9 13.8 27 13.4 W 26 32 14 17 1005.8 1005.6 0.0
28/02:00pm 36.2 32.1 11.6 22 14.7 WSW 24 32 13 17 1005.9 1005.7 0.0
28/01:30pm 36.0 32.2 12.5 24 14.2 WSW 24 28 13 15 1006.3 1006.1 0.0
28/01:00pm 36.3 32.9 12.5 24 14.4 WSW 22 28 12 15 1006.7 1006.5 0.0
28/12:30pm 36.1 33.3 12.7 24 14.2 WSW 19 24 10 13 1007.0 1006.8 0.0
28/12:00pm 34.9 32.1 12.7 26 13.4 WSW 19 24 10 13 1007.3 1007.1 0.0
28/11:30am 35.6 34.1 11.8 23 14.2 WNW 11 20 6 11 1007.7 1007.5 0.0
28/11:00am 35.1 34.0 11.8 24 13.9 NNW 9 19 5 10 1008.0 1007.8 0.0
28/10:30am 34.3 33.1 11.7 25 13.4 N 9 15 5 8 1008.2 1008.0 0.0
28/10:00am 33.1 32.5 12.3 28 12.4 N 7 13 4 7 1008.4 1008.2 0.0
28/09:30am 32.3 30.9 11.0 27 12.4 WNW 9 17 5 9 1008.6 1008.4 0.0
28/09:00am 31.3 28.9 9.9 26 12.2 NW 13 19 7 10 1008.6 1008.4 0.0
28/08:30am 31.0 28.5 9.6 26 12.1 NNW 13 17 7 9 1008.6 1008.4 0.0
28/08:00am 31.3 28.0 9.6 26 12.3 N 17 22 9 12 1008.4 1008.2 0.0
28/07:30am 32.0 30.0 10.0 25 12.6 ENE 11 13 6 7 1007.9 1007.7 0.0
28/07:00am 28.8 26.4 10.0 31 10.6 ENE 13 20 7 11 1007.5 1007.3 0.0
28/06:30am 26.9 24.6 9.1 32 9.8 E 11 17 6 9 1007.2 1007.0 0.0
28/06:00am 25.5 23.6 9.0 35 9.0 E 9 13 5 7 1006.9 1006.7 0.0
28/05:30am 25.7 23.4 9.0 34 9.1 E 11 17 6 9 1006.4 1006.2 0.0
28/05:00am 26.0 23.1 8.2 32 9.6 ENE 13 19 7 10 1006.0 1005.8 0.0
28/04:30am 25.9 23.0 8.1 32 9.6 ENE 13 19 7 10 1005.7 1005.5 0.0
28/04:00am 26.3 23.3 7.9 31 9.9 E 13 19 7 10 1005.5 1005.3 0.0
28/03:30am 27.0 23.5 7.4 29 10.5 E 15 19 8 10 1005.3 1005.1 0.0
28/03:00am 27.7 23.2 6.8 26 11.1 E 20 32 11 17 1005.1 1004.9 0.0
28/02:30am 28.1 22.7 6.4 25 11.4 E 24 32 13 17 1005.2 1005.0 0.0
28/02:00am 28.2 22.6 5.6 23 11.8 E 24 35 13 19 1005.1 1004.9 0.0
28/01:30am 28.3 22.7 5.2 23 11.9 E 24 37 13 20 1005.3 1005.1 0.0
28/01:00am 28.9 22.3 4.4 21 12.6 E 28 39 15 21 1005.5 1005.3 0.0
28/12:30am 26.7 23.5 8.3 31 10.0 E 15 24 8 13 1005.6 1005.4 0.0
28/12:00am 22.8 21.5 11.4 48 6.4 SE 9 9 5 5 1005.7 1005.5 0.0
 
Date/Time
WST
Temp
°C
App
Temp
°C
Dew
Point
Rel
Hum
%
Delta-T
°C
Wind Press
QNH
hPa
Press
MSL
hPa
Rain
since 9 am
mm
Dir
 
Spd
km/h
Gust
km/h
Spd
kts
Gust
kts
27/11:30pm 23.9 22.7 11.5 45 7.0 SE 9 11 5 6 1005.9 1005.7 0.0
27/11:00pm 24.2 22.7 10.5 42 7.6 SE 9 13 5 7 1006.2 1006.0 0.0
27/10:30pm 25.7 24.7 11.0 39 8.3 SE 7 9 4 5 1006.2 1006.0 0.0
27/10:00pm 27.6 25.6 10.2 33 9.8 SSE 11 13 6 7 1006.4 1006.2 0.0
27/09:30pm 28.5 25.9 9.5 30 10.6 SSE 13 20 7 11 1006.4 1006.2 0.0
27/09:00pm 29.1 26.2 9.5 29 11.0 SSE 15 19 8 10 1006.5 1006.3 0.0
27/08:30pm 30.1 26.2 8.7 26 11.9 S 19 28 10 15 1006.4 1006.2 0.0
27/08:00pm 30.6 26.7 9.5 27 11.9 S 20 28 11 15 1006.2 1006.0 0.0
27/07:30pm 31.4 28.2 10.1 26 12.2 SSW 17 22 9 12 1006.1 1005.9 0.0
27/07:00pm 32.2 29.0 9.8 25 12.8 SSW 17 24 9 13 1005.9 1005.7 0.0
27/06:49pm 32.4 28.7 9.3 24 13.1 S 19 26 10 14 1005.9 1005.7 0.0
27/06:30pm 32.9 29.0 8.8 22 13.6 SSW 19 26 10 14 1005.7 1005.5 0.0
27/06:03pm 33.4 28.3 7.7 20 14.2 SSW 24 33 13 18 1005.6 1005.4 0.0
27/06:00pm 33.5 28.8 7.9 20 14.3 SSW 22 32 12 17 1005.6 1005.4 0.0
27/05:30pm 34.4 29.9 8.4 20 14.6 SSW 22 30 12 16 1005.3 1005.1 0.0
27/05:00pm 35.4 30.4 7.9 18 15.5 SSW 24 32 13 17 1005.3 1005.1 0.0
27/04:30pm 35.5 30.7 8.7 19 15.2 SW 24 33 13 18 1005.4 1005.2 0.0
27/04:00pm 36.5 31.5 8.2 17 16.1 WSW 24 32 13 17 1005.6 1005.4 0.0
27/03:30pm 37.1 31.3 8.1 17 16.5 SW 28 33 15 18 1005.8 1005.6 0.0
27/03:00pm 37.4 31.9 7.5 16 16.9 WSW 26 33 14 18 1005.8 1005.6 0.0
27/02:30pm 38.2 33.4 7.5 15 17.4 SW 22 33 12 18 1005.9 1005.7 0.0
27/02:00pm 38.5 35.2 8.1 16 17.4 SSW 15 22 8 12 1006.2 1006.0 0.0
27/01:30pm 37.8 35.1 8.9 17 16.7 SSW 13 24 7 13 1006.7 1006.5 0.0
27/01:00pm 37.7 34.2 7.4 15 17.1 SSW 15 24 8 13 1006.9 1006.7 0.0
27/12:30pm 37.0 34.7 7.6 16 16.6 SSE 9 17 5 9 1007.3 1007.1 0.0
27/12:00pm 36.1 33.1 7.7 17 16.0 NE 13 26 7 14 1007.6 1007.4 0.0
27/11:30am 36.4 33.3 7.3 16 16.3 E 13 19 7 10 1007.9 1007.7 0.0
27/11:00am 34.9 31.4 7.1 18 15.4 ENE 15 26 8 14 1008.1 1007.9 0.0
27/10:30am 33.7 29.1 6.6 18 14.8 ENE 20 30 11 16 1008.4 1008.2 0.0
27/10:00am 32.3 27.2 6.1 19 14.1 ENE 22 28 12 15 1008.5 1008.3 0.0
27/09:30am 31.7 26.3 6.2 20 13.7 ENE 24 33 13 18 1008.8 1008.6 0.0
27/09:00am 30.0 24.5 5.8 21 12.8 ENE 24 32 13 17 1009.0 1008.8 0.0
27/08:30am 29.7 24.2 5.9 22 12.6 ENE 24 33 13 18 1009.0 1008.8 0.0
27/08:00am 28.5 24.0 6.1 24 11.8 ENE 19 30 10 16 1009.0 1008.8 0.0
27/07:30am 27.0 23.1 7.0 28 10.6 ENE 17 26 9 14 1009.1 1008.9 0.0
27/07:00am 24.9 21.6 8.0 34 9.0 E 15 20 8 11 1009.0 1008.8 0.0
27/06:30am 23.9 20.5 7.8 35 8.5 E 15 20 8 11 1009.0 1008.8 0.0
27/06:00am 23.8 20.2 6.9 33 8.8 ENE 15 22 8 12 1008.8 1008.6 0.0
27/05:30am 23.2 19.7 7.3 36 8.3 E 15 24 8 13 1008.6 1008.4 0.0
27/05:00am 23.5 21.0 8.0 37 8.2 E 11 20 6 11 1008.4 1008.2 0.0
27/04:30am 23.7 20.6 7.3 35 8.6 E 13 26 7 14 1008.1 1007.9 0.0
27/04:00am 23.4 19.7 7.9 37 8.2 E 17 24 9 13 1008.0 1007.8 0.0
27/03:30am 23.9 19.8 7.8 35 8.5 E 19 28 10 15 1007.8 1007.6 0.0
27/03:00am 24.1 19.8 7.9 35 8.6 E 20 30 11 16 1007.7 1007.5 0.0
27/02:30am 24.6 19.5 7.6 33 9.0 E 24 41 13 22 1007.7 1007.5 0.0
27/02:00am 24.8 20.5 7.9 34 9.0 E 20 32 11 17 1007.8 1007.6 0.0
27/01:30am 25.6 19.7 7.3 31 9.7 E 28 43 15 23 1007.6 1007.4 0.0
27/01:00am 26.2 19.7 6.3 28 10.4 E 30 37 16 20 1007.7 1007.5 0.0
27/12:30am 26.8 19.8 4.2 23 11.4 E 30 41 16 22 1008.0 1007.8 0.0
27/12:00am 27.5 19.8 2.5 20 12.3 E 32 46 17 25 1008.1 1007.9 0.0
 
Date/Time
WST
Temp
°C
App
Temp
°C
Dew
Point
Rel
Hum
%
Delta-T
°C
Wind Press
QNH
hPa
Press
MSL
hPa
Rain
since 9 am
mm
Dir
 
Spd
km/h
Gust
km/h
Spd
kts
Gust
kts
26/11:30pm 28.2 21.2 1.8 18 12.9 E 28 46 15 25 1008.0 1007.8 0.0
26/11:13pm 28.4 21.4 1.8 18 13.0 E 28 48 15 26 1008.0 1007.8 0.0
26/11:00pm 28.3 21.4 2.4 19 12.8 E 28 35 15 19 1008.0 1007.8 0.0
26/10:30pm 28.7 22.5 2.1 18 13.1 E 24 39 13 21 1008.1 1007.9 0.0
26/10:00pm 28.1 23.1 3.4 20 12.4 ESE 19 24 10 13 1008.2 1008.0 0.0
26/09:30pm 27.3 23.8 5.5 25 11.3 ESE 13 19 7 10 1008.5 1008.3 0.0
26/09:00pm 24.0 24.8 17.2 65 4.2 ESE 9 13 5 7 1008.5 1008.3 0.0
26/08:30pm 24.8 27.4 18.5 68 4.0 SW 2 6 1 3 1008.5 1008.3 0.0
26/08:00pm 25.6 26.5 18.4 64 4.6 WSW 11 13 6 7 1008.5 1008.3 0.0
26/07:30pm 27.3 28.5 18.2 57 5.8 WSW 9 13 5 7 1008.3 1008.1 0.0
26/07:00pm 30.0 30.6 16.8 45 8.3 SW 9 13 5 7 1008.2 1008.0 0.0
26/06:30pm 31.4 31.6 16.7 41 9.3 WSW 11 17 6 9 1008.1 1007.9 0.0
26/06:00pm 35.5 32.2 6.4 16 16.0 SE 13 20 7 11 1008.0 1007.8 0.0
26/05:30pm 35.8 31.5 5.4 15 16.5 ESE 17 24 9 13 1007.8 1007.6 0.0
26/05:00pm 35.7 32.1 5.1 15 16.5 ESE 13 20 7 11 1007.8 1007.6 0.0
26/04:30pm 35.5 31.6 5.4 15 16.3 ENE 15 22 8 12 1008.2 1008.0 0.0
26/04:00pm 35.7 31.7 6.8 17 16.0 SE 17 26 9 14 1008.4 1008.2 0.0
26/03:30pm 35.3 31.6 6.3 16 15.9 ESE 15 28 8 15 1008.7 1008.5 0.0
26/03:00pm 35.1 31.5 6.9 17 15.6 ESE 15 30 8 16 1009.0 1008.8 0.0
26/02:30pm 35.4 31.3 6.2 16 16.0 SE 17 26 9 14 1009.2 1009.0 0.0
26/02:00pm 35.5 31.2 7.0 17 15.8 ESE 19 30 10 16 1009.5 1009.3 0.0
26/01:30pm 33.7 30.9 8.5 21 14.2 ENE 13 26 7 14 1010.1 1009.9 0.0
26/01:00pm 32.9 29.3 8.2 21 13.8 ESE 17 30 9 16 1010.6 1010.4 0.0
26/12:30pm 32.7 28.6 7.8 21 13.8 ESE 19 30 10 16 1011.0 1010.8 0.0
26/12:00pm 31.1 27.2 8.7 25 12.5 ENE 19 30 10 16 1011.4 1011.2 0.0
26/11:30am 30.5 26.4 8.7 25 12.1 E 20 28 11 15 1011.8 1011.6 0.0
26/11:00am 29.3 24.4 8.6 27 11.4 ESE 24 33 13 18 1012.2 1012.0 0.0
26/10:30am 28.2 23.4 8.7 29 10.7 ESE 24 33 13 18 1012.5 1012.3 0.0
26/10:00am 26.7 22.2 8.7 32 9.8 ESE 22 32 12 17 1013.0 1012.8 0.0
26/09:30am 25.4 21.3 8.8 35 9.0 E 20 26 11 14 1013.4 1013.2 0.0
26/09:00am 23.8 19.8 8.9 38 8.0 E 20 30 11 16 1013.8 1013.6 0.0
26/08:30am 22.1 17.3 8.7 42 7.1 ESE 24 32 13 17 1014.1 1013.9 0.0
26/08:00am 20.5 16.1 8.9 47 6.1 ESE 22 33 12 18 1014.4 1014.3 0.0
26/07:30am 19.1 13.1 8.7 51 5.4 E 30 39 16 21 1014.4 1014.3 0.0
26/07:00am 17.9 13.5 9.1 56 4.6 ESE 22 35 12 19 1014.8 1014.7 0.0
26/06:30am 17.1 10.6 8.8 58 4.3 E 33 46 18 25 1014.4 1014.3 0.0
26/06:00am 16.4 12.0 8.8 60 3.9 E 22 32 12 17 1014.6 1014.5 0.0
26/05:30am 16.4 12.5 8.6 60 4.0 E 19 32 10 17 1014.8 1014.7 0.0
26/05:00am 16.2 12.3 8.8 61 3.8 ESE 19 32 10 17 1014.5 1014.4 0.0
26/04:30am 16.7 12.8 8.5 58 4.2 ESE 19 35 10 19 1014.3 1014.2 0.0
26/04:00am 17.0 11.3 8.4 57 4.4 E 28 43 15 23 1014.3 1014.2 0.0
26/03:30am 17.4 12.8 8.2 54 4.7 E 22 37 12 20 1014.3 1014.2 0.0
26/03:00am 18.0 13.3 7.8 51 5.2 ESE 22 35 12 19 1014.3 1014.2 0.0
26/02:30am 18.8 12.9 7.4 47 5.8 ESE 28 37 15 20 1014.2 1014.0 0.0
26/02:00am 19.4 14.1 6.9 44 6.3 ESE 24 35 13 19 1014.2 1014.0 0.0
26/01:30am 20.1 14.8 6.6 41 6.8 ESE 24 37 13 20 1014.5 1014.4 0.0
26/01:00am 21.2 14.9 5.8 36 7.7 ESE 28 43 15 23 1014.2 1014.0 0.0
26/12:30am 22.5 15.4 5.3 32 8.6 ESE 32 50 17 27 1014.0 1013.8 0.0
26/12:23am 22.5 16.1 5.3 32 8.6 ESE 28 50 15 27 1014.0 1013.8 0.0
26/12:00am 23.0 17.0 5.2 31 8.9 ESE 26 39 14 21 1014.1 1013.9 0.0
 
Date/Time
WST
Temp
°C
App
Temp
°C
Dew
Point
Rel
Hum
%
Delta-T
°C
Wind Press
QNH
hPa
Press
MSL
hPa
Rain
since 9 am
mm
Dir
 
Spd
km/h
Gust
km/h
Spd
kts
Gust
kts
25/11:30pm 23.9 17.6 4.0 27 9.8 ESE 26 35 14 19 1013.9 1013.7 0.0
25/11:00pm 24.1 18.9 3.7 26 10.0 ESE 20 26 11 14 1013.9 1013.7 0.0
25/10:30pm 23.6 19.5 4.4 28 9.5 SE 15 20 8 11 1013.8 1013.6 0.0

Other Formats:

Comma delimited format used in spreadsheet applications
http://www.bom.gov.au/fwo/IDW60801/IDW60801.94609.axf

JavaScript Object Notation format (JSON) in row-major order
http://www.bom.gov.au/fwo/IDW60801/IDW60801.94609.json